sensor_id;sensor_type;location;lat;lon;timestamp;P1;durP1;ratioP1;P2;durP2;ratioP2
2944;SDS011;1482;51.398;7.128;2023-04-03T00:00:40;9.40;;;7.40;;
2944;SDS011;1482;51.398;7.128;2023-04-03T00:03:06;19.10;;;9.90;;
2944;SDS011;1482;51.398;7.128;2023-04-03T00:05:32;13.13;;;7.20;;
2944;SDS011;1482;51.398;7.128;2023-04-03T00:07:58;9.57;;;7.47;;
2944;SDS011;1482;51.398;7.128;2023-04-03T00:10:23;7.80;;;7.00;;
2944;SDS011;1482;51.398;7.128;2023-04-03T00:12:49;18.53;;;8.50;;
2944;SDS011;1482;51.398;7.128;2023-04-03T00:15:15;15.17;;;8.87;;
2944;SDS011;1482;51.398;7.128;2023-04-03T00:17:40;14.57;;;9.70;;
2944;SDS011;1482;51.398;7.128;2023-04-03T00:20:06;10.53;;;9.40;;
2944;SDS011;1482;51.398;7.128;2023-04-03T00:22:32;12.67;;;10.00;;
2944;SDS011;1482;51.398;7.128;2023-04-03T00:24:58;16.90;;;11.43;;
2944;SDS011;1482;51.398;7.128;2023-04-03T00:27:23;14.77;;;10.63;;
2944;SDS011;1482;51.398;7.128;2023-04-03T00:29:49;13.23;;;10.73;;
2944;SDS011;1482;51.398;7.128;2023-04-03T00:32:14;15.03;;;9.80;;
2944;SDS011;1482;51.398;7.128;2023-04-03T00:34:40;17.10;;;10.33;;
2944;SDS011;1482;51.398;7.128;2023-04-03T00:37:05;12.10;;;10.40;;
2944;SDS011;1482;51.398;7.128;2023-04-03T00:39:31;13.17;;;10.07;;
2944;SDS011;1482;51.398;7.128;2023-04-03T00:41:57;13.80;;;9.80;;
2944;SDS011;1482;51.398;7.128;2023-04-03T00:47:00;16.10;;;9.10;;
2944;SDS011;1482;51.398;7.128;2023-04-03T00:49:28;13.77;;;8.63;;
2944;SDS011;1482;51.398;7.128;2023-04-03T00:51:54;9.80;;;8.43;;
2944;SDS011;1482;51.398;7.128;2023-04-03T00:54:21;11.83;;;8.17;;
2944;SDS011;1482;51.398;7.128;2023-04-03T00:56:46;12.10;;;8.87;;
2944;SDS011;1482;51.398;7.128;2023-04-03T00:59:14;12.37;;;9.43;;
2944;SDS011;1482;51.398;7.128;2023-04-03T01:01:47;12.90;;;8.90;;
2944;SDS011;1482;51.398;7.128;2023-04-03T01:04:33;10.30;;;7.57;;
2944;SDS011;1482;51.398;7.128;2023-04-03T01:07:02;8.93;;;8.00;;
2944;SDS011;1482;51.398;7.128;2023-04-03T01:09:31;11.57;;;9.20;;
2944;SDS011;1482;51.398;7.128;2023-04-03T01:14:51;11.77;;;8.80;;
2944;SDS011;1482;51.398;7.128;2023-04-03T01:25:39;11.67;;;8.80;;
2944;SDS011;1482;51.398;7.128;2023-04-03T01:28:14;14.53;;;9.80;;
2944;SDS011;1482;51.398;7.128;2023-04-03T01:33:19;17.27;;;9.40;;
2944;SDS011;1482;51.398;7.128;2023-04-03T01:35:45;16.57;;;11.00;;
2944;SDS011;1482;51.398;7.128;2023-04-03T01:38:11;13.03;;;9.70;;
2944;SDS011;1482;51.398;7.128;2023-04-03T01:40:36;14.90;;;10.67;;
2944;SDS011;1482;51.398;7.128;2023-04-03T01:43:02;12.73;;;9.70;;
2944;SDS011;1482;51.398;7.128;2023-04-03T01:45:27;15.87;;;10.30;;
2944;SDS011;1482;51.398;7.128;2023-04-03T01:47:53;15.27;;;10.30;;
2944;SDS011;1482;51.398;7.128;2023-04-03T01:50:19;18.50;;;11.03;;
2944;SDS011;1482;51.398;7.128;2023-04-03T01:52:45;17.20;;;11.07;;
2944;SDS011;1482;51.398;7.128;2023-04-03T01:55:10;19.67;;;12.30;;
2944;SDS011;1482;51.398;7.128;2023-04-03T01:57:36;11.60;;;10.50;;
2944;SDS011;1482;51.398;7.128;2023-04-03T02:00:02;11.93;;;10.33;;
2944;SDS011;1482;51.398;7.128;2023-04-03T02:02:28;15.00;;;11.80;;
2944;SDS011;1482;51.398;7.128;2023-04-03T02:04:53;15.43;;;10.90;;
2944;SDS011;1482;51.398;7.128;2023-04-03T02:07:19;12.83;;;10.67;;
2944;SDS011;1482;51.398;7.128;2023-04-03T02:09:45;12.47;;;11.10;;
2944;SDS011;1482;51.398;7.128;2023-04-03T02:12:10;20.33;;;11.40;;
2944;SDS011;1482;51.398;7.128;2023-04-03T02:14:36;23.63;;;11.40;;
2944;SDS011;1482;51.398;7.128;2023-04-03T02:17:01;16.37;;;12.17;;
2944;SDS011;1482;51.398;7.128;2023-04-03T02:19:33;12.67;;;11.13;;
2944;SDS011;1482;51.398;7.128;2023-04-03T02:22:00;16.10;;;11.17;;
2944;SDS011;1482;51.398;7.128;2023-04-03T02:24:26;16.13;;;10.90;;
2944;SDS011;1482;51.398;7.128;2023-04-03T02:26:52;16.40;;;10.60;;
2944;SDS011;1482;51.398;7.128;2023-04-03T02:29:18;12.57;;;9.50;;
2944;SDS011;1482;51.398;7.128;2023-04-03T02:31:43;12.70;;;9.87;;
2944;SDS011;1482;51.398;7.128;2023-04-03T02:34:09;17.50;;;9.37;;
2944;SDS011;1482;51.398;7.128;2023-04-03T02:36:35;13.23;;;9.83;;
2944;SDS011;1482;51.398;7.128;2023-04-03T02:39:00;10.30;;;8.37;;
2944;SDS011;1482;51.398;7.128;2023-04-03T02:41:26;12.03;;;9.73;;
2944;SDS011;1482;51.398;7.128;2023-04-03T02:43:58;15.70;;;9.40;;
2944;SDS011;1482;51.398;7.128;2023-04-03T02:46:24;27.30;;;9.87;;
2944;SDS011;1482;51.398;7.128;2023-04-03T02:48:49;16.10;;;8.63;;
2944;SDS011;1482;51.398;7.128;2023-04-03T02:51:15;10.17;;;7.97;;
2944;SDS011;1482;51.398;7.128;2023-04-03T02:53:41;9.27;;;8.13;;
2944;SDS011;1482;51.398;7.128;2023-04-03T02:56:06;10.10;;;8.10;;
2944;SDS011;1482;51.398;7.128;2023-04-03T02:58:32;18.23;;;8.80;;
2944;SDS011;1482;51.398;7.128;2023-04-03T03:00:57;13.03;;;8.30;;
2944;SDS011;1482;51.398;7.128;2023-04-03T03:03:23;14.93;;;8.47;;
2944;SDS011;1482;51.398;7.128;2023-04-03T03:05:48;10.00;;;7.47;;
2944;SDS011;1482;51.398;7.128;2023-04-03T03:08:14;10.93;;;7.33;;
2944;SDS011;1482;51.398;7.128;2023-04-03T03:10:40;13.50;;;7.93;;
2944;SDS011;1482;51.398;7.128;2023-04-03T03:13:05;10.80;;;8.43;;
2944;SDS011;1482;51.398;7.128;2023-04-03T03:15:31;8.93;;;7.20;;
2944;SDS011;1482;51.398;7.128;2023-04-03T03:17:56;8.37;;;6.70;;
2944;SDS011;1482;51.398;7.128;2023-04-03T03:20:22;10.77;;;8.20;;
2944;SDS011;1482;51.398;7.128;2023-04-03T03:22:48;7.07;;;6.20;;
2944;SDS011;1482;51.398;7.128;2023-04-03T03:25:13;10.20;;;6.83;;
2944;SDS011;1482;51.398;7.128;2023-04-03T03:27:39;9.50;;;6.90;;
2944;SDS011;1482;51.398;7.128;2023-04-03T03:30:05;7.60;;;6.77;;
2944;SDS011;1482;51.398;7.128;2023-04-03T03:32:31;11.70;;;6.53;;
2944;SDS011;1482;51.398;7.128;2023-04-03T03:34:57;11.00;;;5.93;;
2944;SDS011;1482;51.398;7.128;2023-04-03T03:37:22;14.43;;;6.90;;
2944;SDS011;1482;51.398;7.128;2023-04-03T03:39:48;7.20;;;6.50;;
2944;SDS011;1482;51.398;7.128;2023-04-03T03:42:13;9.47;;;6.10;;
2944;SDS011;1482;51.398;7.128;2023-04-03T03:44:39;16.13;;;7.40;;
2944;SDS011;1482;51.398;7.128;2023-04-03T03:47:05;12.70;;;6.80;;
2944;SDS011;1482;51.398;7.128;2023-04-03T03:49:31;6.57;;;5.10;;
2944;SDS011;1482;51.398;7.128;2023-04-03T03:51:56;19.33;;;5.70;;
2944;SDS011;1482;51.398;7.128;2023-04-03T03:54:22;15.80;;;5.00;;
2944;SDS011;1482;51.398;7.128;2023-04-03T03:56:47;7.20;;;5.40;;
2944;SDS011;1482;51.398;7.128;2023-04-03T03:59:13;9.33;;;5.47;;
2944;SDS011;1482;51.398;7.128;2023-04-03T04:01:38;7.40;;;5.70;;
2944;SDS011;1482;51.398;7.128;2023-04-03T04:04:04;7.13;;;5.20;;
2944;SDS011;1482;51.398;7.128;2023-04-03T04:06:30;6.07;;;4.83;;
2944;SDS011;1482;51.398;7.128;2023-04-03T04:08:55;6.13;;;5.57;;
2944;SDS011;1482;51.398;7.128;2023-04-03T04:11:21;9.27;;;4.90;;
2944;SDS011;1482;51.398;7.128;2023-04-03T04:13:47;10.67;;;4.30;;
2944;SDS011;1482;51.398;7.128;2023-04-03T04:16:12;6.30;;;4.50;;
2944;SDS011;1482;51.398;7.128;2023-04-03T04:18:38;5.93;;;4.93;;
2944;SDS011;1482;51.398;7.128;2023-04-03T04:21:03;6.20;;;4.37;;
2944;SDS011;1482;51.398;7.128;2023-04-03T04:23:29;5.03;;;4.53;;
2944;SDS011;1482;51.398;7.128;2023-04-03T04:25:55;6.73;;;4.27;;
2944;SDS011;1482;51.398;7.128;2023-04-03T04:28:20;6.37;;;4.73;;
2944;SDS011;1482;51.398;7.128;2023-04-03T04:30:46;9.07;;;4.90;;
2944;SDS011;1482;51.398;7.128;2023-04-03T04:33:11;13.07;;;4.33;;
2944;SDS011;1482;51.398;7.128;2023-04-03T04:35:38;4.23;;;3.83;;
2944;SDS011;1482;51.398;7.128;2023-04-03T04:38:06;5.80;;;4.03;;
2944;SDS011;1482;51.398;7.128;2023-04-03T04:40:33;7.53;;;4.37;;
2944;SDS011;1482;51.398;7.128;2023-04-03T04:42:59;8.50;;;4.20;;
2944;SDS011;1482;51.398;7.128;2023-04-03T04:45:24;13.57;;;4.73;;
2944;SDS011;1482;51.398;7.128;2023-04-03T04:47:50;6.37;;;3.77;;
2944;SDS011;1482;51.398;7.128;2023-04-03T04:50:17;10.10;;;5.40;;
2944;SDS011;1482;51.398;7.128;2023-04-03T04:52:43;5.00;;;3.53;;
2944;SDS011;1482;51.398;7.128;2023-04-03T04:55:08;5.70;;;4.30;;
2944;SDS011;1482;51.398;7.128;2023-04-03T04:57:34;6.57;;;3.83;;
2944;SDS011;1482;51.398;7.128;2023-04-03T05:00:00;5.67;;;3.13;;
2944;SDS011;1482;51.398;7.128;2023-04-03T05:02:25;12.50;;;4.00;;
2944;SDS011;1482;51.398;7.128;2023-04-03T05:04:51;16.83;;;4.43;;
2944;SDS011;1482;51.398;7.128;2023-04-03T05:07:17;3.27;;;3.00;;
2944;SDS011;1482;51.398;7.128;2023-04-03T05:09:43;8.83;;;4.73;;
2944;SDS011;1482;51.398;7.128;2023-04-03T05:12:08;10.67;;;2.80;;
2944;SDS011;1482;51.398;7.128;2023-04-03T05:14:34;9.90;;;2.80;;
2944;SDS011;1482;51.398;7.128;2023-04-03T05:16:59;6.27;;;2.83;;
2944;SDS011;1482;51.398;7.128;2023-04-03T05:19:25;8.50;;;4.43;;
2944;SDS011;1482;51.398;7.128;2023-04-03T05:21:50;5.37;;;2.80;;
2944;SDS011;1482;51.398;7.128;2023-04-03T05:24:16;4.30;;;2.37;;
2944;SDS011;1482;51.398;7.128;2023-04-03T05:26:42;3.43;;;1.97;;
2944;SDS011;1482;51.398;7.128;2023-04-03T05:29:08;4.43;;;2.63;;
2944;SDS011;1482;51.398;7.128;2023-04-03T05:31:35;6.57;;;2.80;;
2944;SDS011;1482;51.398;7.128;2023-04-03T05:34:00;6.90;;;2.87;;
2944;SDS011;1482;51.398;7.128;2023-04-03T05:36:26;4.83;;;2.70;;
2944;SDS011;1482;51.398;7.128;2023-04-03T05:38:52;2.80;;;2.50;;
2944;SDS011;1482;51.398;7.128;2023-04-03T05:41:18;7.07;;;3.87;;
2944;SDS011;1482;51.398;7.128;2023-04-03T05:43:45;6.43;;;3.23;;
2944;SDS011;1482;51.398;7.128;2023-04-03T05:46:11;5.50;;;2.50;;
2944;SDS011;1482;51.398;7.128;2023-04-03T05:48:38;5.73;;;2.87;;
2944;SDS011;1482;51.398;7.128;2023-04-03T05:51:04;4.37;;;2.47;;
2944;SDS011;1482;51.398;7.128;2023-04-03T05:53:32;4.13;;;2.70;;
2944;SDS011;1482;51.398;7.128;2023-04-03T05:56:02;5.93;;;2.90;;
2944;SDS011;1482;51.398;7.128;2023-04-03T05:58:27;4.40;;;2.60;;
2944;SDS011;1482;51.398;7.128;2023-04-03T06:00:53;4.23;;;2.70;;
2944;SDS011;1482;51.398;7.128;2023-04-03T06:03:19;3.30;;;2.80;;
2944;SDS011;1482;51.398;7.128;2023-04-03T06:05:44;5.70;;;2.67;;
2944;SDS011;1482;51.398;7.128;2023-04-03T06:08:11;10.47;;;3.57;;
2944;SDS011;1482;51.398;7.128;2023-04-03T06:10:37;4.93;;;2.50;;
2944;SDS011;1482;51.398;7.128;2023-04-03T06:13:03;5.20;;;2.50;;
2944;SDS011;1482;51.398;7.128;2023-04-03T06:15:29;5.07;;;2.23;;
2944;SDS011;1482;51.398;7.128;2023-04-03T06:17:54;3.63;;;2.40;;
2944;SDS011;1482;51.398;7.128;2023-04-03T06:20:20;4.20;;;2.50;;
2944;SDS011;1482;51.398;7.128;2023-04-03T06:22:47;6.10;;;2.77;;
2944;SDS011;1482;51.398;7.128;2023-04-03T06:25:12;4.20;;;2.83;;
2944;SDS011;1482;51.398;7.128;2023-04-03T06:27:38;3.87;;;2.33;;
2944;SDS011;1482;51.398;7.128;2023-04-03T06:30:04;4.00;;;3.00;;
2944;SDS011;1482;51.398;7.128;2023-04-03T06:32:31;3.73;;;2.60;;
2944;SDS011;1482;51.398;7.128;2023-04-03T06:34:56;2.67;;;2.40;;
2944;SDS011;1482;51.398;7.128;2023-04-03T06:37:23;3.93;;;2.40;;
2944;SDS011;1482;51.398;7.128;2023-04-03T06:39:53;3.60;;;2.80;;
2944;SDS011;1482;51.398;7.128;2023-04-03T06:42:19;6.70;;;4.97;;
2944;SDS011;1482;51.398;7.128;2023-04-03T06:44:45;6.10;;;4.70;;
2944;SDS011;1482;51.398;7.128;2023-04-03T06:47:12;6.87;;;6.23;;
2944;SDS011;1482;51.398;7.128;2023-04-03T06:49:39;7.40;;;5.50;;
2944;SDS011;1482;51.398;7.128;2023-04-03T06:52:05;5.00;;;4.60;;
2944;SDS011;1482;51.398;7.128;2023-04-03T06:54:31;8.40;;;4.90;;
2944;SDS011;1482;51.398;7.128;2023-04-03T06:56:57;5.00;;;4.60;;
2944;SDS011;1482;51.398;7.128;2023-04-03T06:59:22;4.60;;;4.20;;
2944;SDS011;1482;51.398;7.128;2023-04-03T07:01:48;5.10;;;4.10;;
2944;SDS011;1482;51.398;7.128;2023-04-03T07:04:14;5.87;;;5.33;;
2944;SDS011;1482;51.398;7.128;2023-04-03T07:06:40;6.77;;;6.03;;
2944;SDS011;1482;51.398;7.128;2023-04-03T07:09:07;6.83;;;4.60;;
2944;SDS011;1482;51.398;7.128;2023-04-03T07:11:34;6.37;;;4.63;;
2944;SDS011;1482;51.398;7.128;2023-04-03T07:14:01;4.47;;;4.03;;
2944;SDS011;1482;51.398;7.128;2023-04-03T07:16:27;5.83;;;5.43;;
2944;SDS011;1482;51.398;7.128;2023-04-03T07:18:53;5.17;;;4.77;;
2944;SDS011;1482;51.398;7.128;2023-04-03T07:21:18;5.40;;;4.87;;
2944;SDS011;1482;51.398;7.128;2023-04-03T07:23:44;5.73;;;5.13;;
2944;SDS011;1482;51.398;7.128;2023-04-03T07:26:10;5.03;;;4.70;;
2944;SDS011;1482;51.398;7.128;2023-04-03T07:28:35;5.47;;;4.03;;
2944;SDS011;1482;51.398;7.128;2023-04-03T07:31:05;5.20;;;4.80;;
2944;SDS011;1482;51.398;7.128;2023-04-03T07:33:33;4.97;;;4.20;;
2944;SDS011;1482;51.398;7.128;2023-04-03T07:36:00;5.90;;;4.40;;
2944;SDS011;1482;51.398;7.128;2023-04-03T07:38:26;5.13;;;4.63;;
2944;SDS011;1482;51.398;7.128;2023-04-03T07:40:52;4.67;;;4.30;;
2944;SDS011;1482;51.398;7.128;2023-04-03T07:43:19;4.60;;;4.20;;
2944;SDS011;1482;51.398;7.128;2023-04-03T07:45:46;7.00;;;4.73;;
2944;SDS011;1482;51.398;7.128;2023-04-03T07:48:15;4.40;;;4.00;;
2944;SDS011;1482;51.398;7.128;2023-04-03T07:50:42;4.57;;;4.13;;
2944;SDS011;1482;51.398;7.128;2023-04-03T07:53:08;5.40;;;4.70;;
2944;SDS011;1482;51.398;7.128;2023-04-03T07:55:34;4.87;;;4.47;;
2944;SDS011;1482;51.398;7.128;2023-04-03T07:58:07;4.80;;;4.53;;
2944;SDS011;1482;51.398;7.128;2023-04-03T08:00:37;6.10;;;4.70;;
2944;SDS011;1482;51.398;7.128;2023-04-03T08:03:03;6.17;;;5.63;;
2944;SDS011;1482;51.398;7.128;2023-04-03T08:05:29;5.27;;;4.83;;
2944;SDS011;1482;51.398;7.128;2023-04-03T08:07:54;5.20;;;4.10;;
2944;SDS011;1482;51.398;7.128;2023-04-03T08:10:20;4.10;;;3.80;;
2944;SDS011;1482;51.398;7.128;2023-04-03T08:12:46;4.70;;;4.20;;
2944;SDS011;1482;51.398;7.128;2023-04-03T08:15:12;4.07;;;3.73;;
2944;SDS011;1482;51.398;7.128;2023-04-03T08:17:38;4.60;;;4.03;;
2944;SDS011;1482;51.398;7.128;2023-04-03T08:20:04;4.80;;;3.80;;
2944;SDS011;1482;51.398;7.128;2023-04-03T08:22:31;5.57;;;5.00;;
2944;SDS011;1482;51.398;7.128;2023-04-03T08:24:57;4.07;;;3.67;;
2944;SDS011;1482;51.398;7.128;2023-04-03T08:27:23;8.80;;;7.50;;
2944;SDS011;1482;51.398;7.128;2023-04-03T08:29:49;14.23;;;8.97;;
2944;SDS011;1482;51.398;7.128;2023-04-03T08:32:14;6.50;;;2.87;;
2944;SDS011;1482;51.398;7.128;2023-04-03T08:34:40;6.30;;;2.67;;
2944;SDS011;1482;51.398;7.128;2023-04-03T08:37:06;4.93;;;1.90;;
2944;SDS011;1482;51.398;7.128;2023-04-03T08:39:31;4.23;;;2.13;;
2944;SDS011;1482;51.398;7.128;2023-04-03T08:41:57;3.33;;;3.00;;
2944;SDS011;1482;51.398;7.128;2023-04-03T08:44:46;5.53;;;2.73;;
2944;SDS011;1482;51.398;7.128;2023-04-03T08:47:44;2.60;;;2.37;;
2944;SDS011;1482;51.398;7.128;2023-04-03T08:50:18;5.27;;;2.90;;
2944;SDS011;1482;51.398;7.128;2023-04-03T08:52:48;3.10;;;2.17;;
2944;SDS011;1482;51.398;7.128;2023-04-03T08:57:43;3.10;;;2.10;;
2944;SDS011;1482;51.398;7.128;2023-04-03T09:02:52;5.27;;;3.10;;
2944;SDS011;1482;51.398;7.128;2023-04-03T09:05:22;3.27;;;2.10;;
2944;SDS011;1482;51.398;7.128;2023-04-03T09:07:59;3.63;;;2.10;;
2944;SDS011;1482;51.398;7.128;2023-04-03T09:10:33;4.60;;;1.50;;
2944;SDS011;1482;51.398;7.128;2023-04-03T09:13:04;3.43;;;1.60;;
2944;SDS011;1482;51.398;7.128;2023-04-03T09:15:35;3.37;;;1.40;;
2944;SDS011;1482;51.398;7.128;2023-04-03T09:18:19;4.73;;;2.00;;
2944;SDS011;1482;51.398;7.128;2023-04-03T09:23:46;2.43;;;1.40;;
2944;SDS011;1482;51.398;7.128;2023-04-03T09:26:20;5.33;;;2.07;;
2944;SDS011;1482;51.398;7.128;2023-04-03T09:28:54;2.33;;;1.60;;
2944;SDS011;1482;51.398;7.128;2023-04-03T09:31:24;2.83;;;2.00;;
2944;SDS011;1482;51.398;7.128;2023-04-03T09:34:03;6.97;;;2.30;;
2944;SDS011;1482;51.398;7.128;2023-04-03T09:36:43;3.70;;;2.23;;
2944;SDS011;1482;51.398;7.128;2023-04-03T09:39:13;3.03;;;2.73;;
2944;SDS011;1482;51.398;7.128;2023-04-03T09:41:41;2.37;;;1.80;;
2944;SDS011;1482;51.398;7.128;2023-04-03T09:44:23;4.40;;;2.37;;
2944;SDS011;1482;51.398;7.128;2023-04-03T09:46:51;3.47;;;2.17;;
2944;SDS011;1482;51.398;7.128;2023-04-03T09:49:17;7.87;;;2.33;;
2944;SDS011;1482;51.398;7.128;2023-04-03T09:51:44;2.57;;;2.37;;
2944;SDS011;1482;51.398;7.128;2023-04-03T09:54:30;3.70;;;2.00;;
2944;SDS011;1482;51.398;7.128;2023-04-03T09:57:01;1.80;;;1.67;;
2944;SDS011;1482;51.398;7.128;2023-04-03T09:59:31;2.13;;;1.80;;
2944;SDS011;1482;51.398;7.128;2023-04-03T10:02:02;4.87;;;2.27;;
2944;SDS011;1482;51.398;7.128;2023-04-03T10:04:39;2.13;;;1.60;;
2944;SDS011;1482;51.398;7.128;2023-04-03T10:12:42;2.47;;;2.07;;
2944;SDS011;1482;51.398;7.128;2023-04-03T10:15:12;2.53;;;1.50;;
2944;SDS011;1482;51.398;7.128;2023-04-03T10:20:54;1.73;;;1.57;;
2944;SDS011;1482;51.398;7.128;2023-04-03T10:23:41;2.70;;;1.80;;
2944;SDS011;1482;51.398;7.128;2023-04-03T10:29:19;4.50;;;2.13;;
2944;SDS011;1482;51.398;7.128;2023-04-03T10:32:01;3.03;;;2.00;;
2944;SDS011;1482;51.398;7.128;2023-04-03T10:34:41;10.30;;;3.30;;
2944;SDS011;1482;51.398;7.128;2023-04-03T10:39:54;2.33;;;2.00;;
2944;SDS011;1482;51.398;7.128;2023-04-03T10:47:56;2.63;;;1.63;;
2944;SDS011;1482;51.398;7.128;2023-04-03T10:50:39;2.87;;;1.80;;
2944;SDS011;1482;51.398;7.128;2023-04-03T10:53:18;3.00;;;2.27;;
2944;SDS011;1482;51.398;7.128;2023-04-03T10:59:02;3.03;;;2.30;;
2944;SDS011;1482;51.398;7.128;2023-04-03T11:01:35;1.70;;;1.60;;
2944;SDS011;1482;51.398;7.128;2023-04-03T11:04:04;2.13;;;1.60;;
2944;SDS011;1482;51.398;7.128;2023-04-03T11:06:35;2.87;;;1.73;;
2944;SDS011;1482;51.398;7.128;2023-04-03T11:09:15;2.70;;;1.50;;
2944;SDS011;1482;51.398;7.128;2023-04-03T11:11:45;2.80;;;1.53;;
2944;SDS011;1482;51.398;7.128;2023-04-03T11:16:59;4.20;;;1.83;;
2944;SDS011;1482;51.398;7.128;2023-04-03T11:19:39;4.00;;;1.93;;
2944;SDS011;1482;51.398;7.128;2023-04-03T11:22:21;3.50;;;1.77;;
2944;SDS011;1482;51.398;7.128;2023-04-03T11:24:57;4.63;;;1.80;;
2944;SDS011;1482;51.398;7.128;2023-04-03T11:27:30;3.60;;;1.60;;
2944;SDS011;1482;51.398;7.128;2023-04-03T11:30:05;2.10;;;1.27;;
2944;SDS011;1482;51.398;7.128;2023-04-03T11:32:41;1.97;;;1.33;;
2944;SDS011;1482;51.398;7.128;2023-04-03T11:35:09;2.30;;;1.60;;
2944;SDS011;1482;51.398;7.128;2023-04-03T11:37:44;2.33;;;1.70;;
2944;SDS011;1482;51.398;7.128;2023-04-03T11:42:46;3.10;;;1.43;;
2944;SDS011;1482;51.398;7.128;2023-04-03T11:52:59;1.40;;;1.30;;
2944;SDS011;1482;51.398;7.128;2023-04-03T12:05:56;1.90;;;1.60;;
2944;SDS011;1482;51.398;7.128;2023-04-03T12:16:30;3.83;;;1.63;;
2944;SDS011;1482;51.398;7.128;2023-04-03T12:19:03;2.67;;;1.97;;
2944;SDS011;1482;51.398;7.128;2023-04-03T12:22:11;2.30;;;2.10;;
2944;SDS011;1482;51.398;7.128;2023-04-03T12:24:38;2.00;;;1.57;;
2944;SDS011;1482;51.398;7.128;2023-04-03T12:38:30;1.93;;;1.77;;
2944;SDS011;1482;51.398;7.128;2023-04-03T12:43:49;1.83;;;1.60;;
2944;SDS011;1482;51.398;7.128;2023-04-03T12:46:26;3.30;;;2.13;;
2944;SDS011;1482;51.398;7.128;2023-04-03T12:49:00;2.07;;;1.83;;
2944;SDS011;1482;51.398;7.128;2023-04-03T12:51:39;3.67;;;1.83;;
2944;SDS011;1482;51.398;7.128;2023-04-03T12:54:14;3.33;;;2.07;;
2944;SDS011;1482;51.398;7.128;2023-04-03T12:56:42;2.80;;;1.90;;
2944;SDS011;1482;51.398;7.128;2023-04-03T12:59:21;2.17;;;1.73;;
2944;SDS011;1482;51.398;7.128;2023-04-03T13:02:00;1.63;;;1.27;;
2944;SDS011;1482;51.398;7.128;2023-04-03T13:04:26;2.90;;;1.47;;
2944;SDS011;1482;51.398;7.128;2023-04-03T13:06:54;2.53;;;1.50;;
2944;SDS011;1482;51.398;7.128;2023-04-03T13:09:21;3.40;;;2.20;;
2944;SDS011;1482;51.398;7.128;2023-04-03T13:11:52;4.60;;;1.57;;
2944;SDS011;1482;51.398;7.128;2023-04-03T13:14:26;3.00;;;2.00;;
2944;SDS011;1482;51.398;7.128;2023-04-03T13:19:29;2.40;;;2.20;;
2944;SDS011;1482;51.398;7.128;2023-04-03T13:21:59;3.07;;;1.60;;
2944;SDS011;1482;51.398;7.128;2023-04-03T13:24:30;6.00;;;1.57;;
2944;SDS011;1482;51.398;7.128;2023-04-03T13:26:59;3.10;;;1.57;;
2944;SDS011;1482;51.398;7.128;2023-04-03T13:29:26;3.83;;;1.83;;
2944;SDS011;1482;51.398;7.128;2023-04-03T13:31:54;3.10;;;1.50;;
2944;SDS011;1482;51.398;7.128;2023-04-03T13:34:22;2.53;;;1.40;;
2944;SDS011;1482;51.398;7.128;2023-04-03T13:41:53;2.40;;;1.60;;
2944;SDS011;1482;51.398;7.128;2023-04-03T13:46:46;2.97;;;2.00;;
2944;SDS011;1482;51.398;7.128;2023-04-03T13:49:30;1.47;;;1.33;;
2944;SDS011;1482;51.398;7.128;2023-04-03T13:52:24;3.80;;;1.70;;
2944;SDS011;1482;51.398;7.128;2023-04-03T13:55:01;6.20;;;1.47;;
2944;SDS011;1482;51.398;7.128;2023-04-03T13:57:51;2.47;;;1.70;;
2944;SDS011;1482;51.398;7.128;2023-04-03T14:02:56;4.83;;;1.57;;
2944;SDS011;1482;51.398;7.128;2023-04-03T14:05:22;2.27;;;2.00;;
2944;SDS011;1482;51.398;7.128;2023-04-03T14:07:50;6.53;;;2.10;;
2944;SDS011;1482;51.398;7.128;2023-04-03T14:10:16;2.83;;;1.73;;
2944;SDS011;1482;51.398;7.128;2023-04-03T14:12:42;3.77;;;1.93;;
2944;SDS011;1482;51.398;7.128;2023-04-03T14:17:44;3.40;;;1.50;;
2944;SDS011;1482;51.398;7.128;2023-04-03T14:20:14;1.57;;;1.40;;
2944;SDS011;1482;51.398;7.128;2023-04-03T14:22:41;5.63;;;2.53;;
2944;SDS011;1482;51.398;7.128;2023-04-03T14:25:07;2.30;;;1.90;;
2944;SDS011;1482;51.398;7.128;2023-04-03T14:27:34;6.00;;;2.10;;
2944;SDS011;1482;51.398;7.128;2023-04-03T14:30:03;3.53;;;2.07;;
2944;SDS011;1482;51.398;7.128;2023-04-03T14:32:31;4.80;;;2.23;;
2944;SDS011;1482;51.398;7.128;2023-04-03T14:34:56;2.17;;;1.97;;
2944;SDS011;1482;51.398;7.128;2023-04-03T14:37:24;4.23;;;1.90;;
2944;SDS011;1482;51.398;7.128;2023-04-03T14:39:53;2.20;;;1.80;;
2944;SDS011;1482;51.398;7.128;2023-04-03T14:42:20;1.83;;;1.47;;
2944;SDS011;1482;51.398;7.128;2023-04-03T14:44:51;2.30;;;1.27;;
2944;SDS011;1482;51.398;7.128;2023-04-03T14:47:21;5.27;;;1.80;;
2944;SDS011;1482;51.398;7.128;2023-04-03T14:49:49;2.00;;;1.73;;
2944;SDS011;1482;51.398;7.128;2023-04-03T14:52:23;3.03;;;1.23;;
2944;SDS011;1482;51.398;7.128;2023-04-03T14:54:51;2.17;;;1.77;;
2944;SDS011;1482;51.398;7.128;2023-04-03T14:57:17;2.43;;;1.60;;
2944;SDS011;1482;51.398;7.128;2023-04-03T14:59:44;3.60;;;1.93;;
2944;SDS011;1482;51.398;7.128;2023-04-03T15:04:51;1.50;;;1.30;;
2944;SDS011;1482;51.398;7.128;2023-04-03T15:07:17;2.20;;;1.67;;
2944;SDS011;1482;51.398;7.128;2023-04-03T15:09:42;4.60;;;1.30;;
2944;SDS011;1482;51.398;7.128;2023-04-03T15:12:09;2.03;;;1.87;;
2944;SDS011;1482;51.398;7.128;2023-04-03T15:14:35;2.90;;;1.47;;
2944;SDS011;1482;51.398;7.128;2023-04-03T15:17:01;3.03;;;1.60;;
2944;SDS011;1482;51.398;7.128;2023-04-03T15:19:27;5.63;;;2.43;;
2944;SDS011;1482;51.398;7.128;2023-04-03T15:21:53;2.40;;;1.50;;
2944;SDS011;1482;51.398;7.128;2023-04-03T15:24:18;2.50;;;1.50;;
2944;SDS011;1482;51.398;7.128;2023-04-03T15:26:44;2.50;;;1.40;;
2944;SDS011;1482;51.398;7.128;2023-04-03T15:29:09;3.47;;;1.67;;
2944;SDS011;1482;51.398;7.128;2023-04-03T15:31:35;2.90;;;2.10;;
2944;SDS011;1482;51.398;7.128;2023-04-03T15:34:01;1.83;;;1.50;;
2944;SDS011;1482;51.398;7.128;2023-04-03T15:36:27;2.40;;;1.70;;
2944;SDS011;1482;51.398;7.128;2023-04-03T15:38:53;2.20;;;1.87;;
2944;SDS011;1482;51.398;7.128;2023-04-03T15:41:18;2.97;;;1.70;;
2944;SDS011;1482;51.398;7.128;2023-04-03T15:43:44;10.50;;;2.37;;
2944;SDS011;1482;51.398;7.128;2023-04-03T15:46:10;3.57;;;1.67;;
2944;SDS011;1482;51.398;7.128;2023-04-03T15:48:38;3.80;;;2.40;;
2944;SDS011;1482;51.398;7.128;2023-04-03T15:51:04;3.60;;;2.00;;
2944;SDS011;1482;51.398;7.128;2023-04-03T15:53:31;2.97;;;1.67;;
2944;SDS011;1482;51.398;7.128;2023-04-03T15:55:57;1.93;;;1.70;;
2944;SDS011;1482;51.398;7.128;2023-04-03T15:58:22;1.63;;;1.53;;
2944;SDS011;1482;51.398;7.128;2023-04-03T16:00:48;3.80;;;2.27;;
2944;SDS011;1482;51.398;7.128;2023-04-03T16:03:18;2.70;;;2.17;;
2944;SDS011;1482;51.398;7.128;2023-04-03T16:05:45;7.00;;;2.03;;
2944;SDS011;1482;51.398;7.128;2023-04-03T16:08:11;3.17;;;1.93;;
2944;SDS011;1482;51.398;7.128;2023-04-03T16:10:37;3.80;;;2.50;;
2944;SDS011;1482;51.398;7.128;2023-04-03T16:13:03;1.50;;;1.33;;
2944;SDS011;1482;51.398;7.128;2023-04-03T16:15:29;3.10;;;1.60;;
2944;SDS011;1482;51.398;7.128;2023-04-03T16:17:55;2.00;;;1.53;;
2944;SDS011;1482;51.398;7.128;2023-04-03T16:20:23;3.23;;;2.20;;
2944;SDS011;1482;51.398;7.128;2023-04-03T16:22:49;6.50;;;3.90;;
2944;SDS011;1482;51.398;7.128;2023-04-03T16:25:15;6.63;;;2.63;;
2944;SDS011;1482;51.398;7.128;2023-04-03T16:27:41;2.53;;;1.80;;
2944;SDS011;1482;51.398;7.128;2023-04-03T16:30:06;7.13;;;2.43;;
2944;SDS011;1482;51.398;7.128;2023-04-03T16:32:33;5.50;;;2.27;;
2944;SDS011;1482;51.398;7.128;2023-04-03T16:34:59;4.27;;;2.57;;
2944;SDS011;1482;51.398;7.128;2023-04-03T16:37:25;3.00;;;1.80;;
2944;SDS011;1482;51.398;7.128;2023-04-03T16:39:51;2.37;;;2.10;;
2944;SDS011;1482;51.398;7.128;2023-04-03T16:42:16;3.00;;;2.00;;
2944;SDS011;1482;51.398;7.128;2023-04-03T16:44:42;2.40;;;1.80;;
2944;SDS011;1482;51.398;7.128;2023-04-03T16:47:08;4.90;;;2.33;;
2944;SDS011;1482;51.398;7.128;2023-04-03T16:49:34;2.33;;;1.80;;
2944;SDS011;1482;51.398;7.128;2023-04-03T16:52:01;2.87;;;1.63;;
2944;SDS011;1482;51.398;7.128;2023-04-03T16:54:28;2.67;;;1.63;;
2944;SDS011;1482;51.398;7.128;2023-04-03T16:56:54;3.40;;;1.80;;
2944;SDS011;1482;51.398;7.128;2023-04-03T16:59:19;3.53;;;2.17;;
2944;SDS011;1482;51.398;7.128;2023-04-03T17:01:45;3.40;;;1.70;;
2944;SDS011;1482;51.398;7.128;2023-04-03T17:04:11;3.63;;;1.50;;
2944;SDS011;1482;51.398;7.128;2023-04-03T17:06:37;3.10;;;1.40;;